< < Back
Terminal Aerodrome Forecast


Current Version              Previous Versions:   1  2  3  4  5  6  7  8  9  

Terminal Aerodrome Forecast

717
FTUS42 KGSP 242300
TAFGSP
TAF
KGSP 242333Z 2500/2524 28005KT P6SM SCT050 BKN150
     FM250300 35004KT P6SM FEW060 BKN200
     FM251000 36003KT 4SM BR FEW010 SCT060
     FM251400 13005KT P6SM SCT060=



Latest METAR

630
SAUS70 KWBC 251300 RRC
MTRGSP
METAR KGSP 251253Z 05008KT 10SM FEW008 SCT048 BKN070 23/19 A3007 RMK AO2
SLP169 T02330194


USA.gov is the U.S. government's official web portal to all federal, state and local government web resources and services.